sensor_id;sensor_type;location;lat;lon;timestamp;temperature;humidity
13742;DHT22;8461;52.356;10.704;2022-08-19T00:00:19;20.80;99.90
13742;DHT22;8461;52.356;10.704;2022-08-19T00:02:45;20.80;99.90
13742;DHT22;8461;52.356;10.704;2022-08-19T00:05:13;20.90;99.90
13742;DHT22;8461;52.356;10.704;2022-08-19T00:07:39;20.80;99.90
13742;DHT22;8461;52.356;10.704;2022-08-19T00:10:06;20.80;99.90
13742;DHT22;8461;52.356;10.704;2022-08-19T00:12:33;20.80;99.90
13742;DHT22;8461;52.356;10.704;2022-08-19T00:14:58;20.70;99.90
13742;DHT22;8461;52.356;10.704;2022-08-19T00:17:24;20.70;99.90
13742;DHT22;8461;52.356;10.704;2022-08-19T00:19:49;20.70;99.90
13742;DHT22;8461;52.356;10.704;2022-08-19T00:22:16;20.70;99.90
13742;DHT22;8461;52.356;10.704;2022-08-19T00:24:44;20.70;99.90
13742;DHT22;8461;52.356;10.704;2022-08-19T00:27:10;20.70;99.90
13742;DHT22;8461;52.356;10.704;2022-08-19T00:29:36;20.70;99.90
13742;DHT22;8461;52.356;10.704;2022-08-19T00:32:02;20.70;99.90
13742;DHT22;8461;52.356;10.704;2022-08-19T00:34:28;20.70;99.90
13742;DHT22;8461;52.356;10.704;2022-08-19T00:36:54;20.70;99.90
13742;DHT22;8461;52.356;10.704;2022-08-19T00:39:20;20.60;99.90
13742;DHT22;8461;52.356;10.704;2022-08-19T00:41:47;20.60;99.90
13742;DHT22;8461;52.356;10.704;2022-08-19T00:46:47;20.60;99.90
13742;DHT22;8461;52.356;10.704;2022-08-19T00:49:16;20.50;99.90
13742;DHT22;8461;52.356;10.704;2022-08-19T00:51:47;20.50;99.90
13742;DHT22;8461;52.356;10.704;2022-08-19T00:54:14;20.60;99.90
13742;DHT22;8461;52.356;10.704;2022-08-19T00:56:41;20.60;99.90
13742;DHT22;8461;52.356;10.704;2022-08-19T00:59:07;20.60;99.90
13742;DHT22;8461;52.356;10.704;2022-08-19T01:01:37;20.60;99.90
13742;DHT22;8461;52.356;10.704;2022-08-19T01:04:03;20.50;99.90
13742;DHT22;8461;52.356;10.704;2022-08-19T01:06:30;20.50;99.90
13742;DHT22;8461;52.356;10.704;2022-08-19T01:08:58;20.50;99.90
13742;DHT22;8461;52.356;10.704;2022-08-19T01:11:25;20.40;99.90
13742;DHT22;8461;52.356;10.704;2022-08-19T01:13:52;20.40;99.90
13742;DHT22;8461;52.356;10.704;2022-08-19T01:16:20;20.40;99.90
13742;DHT22;8461;52.356;10.704;2022-08-19T01:18:47;20.40;99.90
13742;DHT22;8461;52.356;10.704;2022-08-19T01:21:35;20.40;99.90
13742;DHT22;8461;52.356;10.704;2022-08-19T01:24:03;20.40;99.90
13742;DHT22;8461;52.356;10.704;2022-08-19T01:26:29;20.30;99.90
13742;DHT22;8461;52.356;10.704;2022-08-19T01:28:57;20.30;99.90
13742;DHT22;8461;52.356;10.704;2022-08-19T01:31:29;20.30;99.90
13742;DHT22;8461;52.356;10.704;2022-08-19T01:33:58;20.20;99.90
13742;DHT22;8461;52.356;10.704;2022-08-19T01:36:39;20.10;99.90
13742;DHT22;8461;52.356;10.704;2022-08-19T01:39:09;20.10;99.90
13742;DHT22;8461;52.356;10.704;2022-08-19T01:41:35;20.10;99.90
13742;DHT22;8461;52.356;10.704;2022-08-19T01:44:01;20.10;99.90
13742;DHT22;8461;52.356;10.704;2022-08-19T01:46:29;20.00;99.90
13742;DHT22;8461;52.356;10.704;2022-08-19T01:48:55;20.00;99.90
13742;DHT22;8461;52.356;10.704;2022-08-19T01:51:21;20.10;99.90
13742;DHT22;8461;52.356;10.704;2022-08-19T01:53:48;20.00;99.90
13742;DHT22;8461;52.356;10.704;2022-08-19T01:56:14;19.90;99.90
13742;DHT22;8461;52.356;10.704;2022-08-19T01:58:51;20.00;99.90
13742;DHT22;8461;52.356;10.704;2022-08-19T02:01:19;20.00;99.90
13742;DHT22;8461;52.356;10.704;2022-08-19T02:03:45;19.90;99.90
13742;DHT22;8461;52.356;10.704;2022-08-19T02:06:11;19.90;99.90
13742;DHT22;8461;52.356;10.704;2022-08-19T02:08:38;19.90;99.90
13742;DHT22;8461;52.356;10.704;2022-08-19T02:11:05;19.90;99.90
13742;DHT22;8461;52.356;10.704;2022-08-19T02:13:31;19.80;99.90
13742;DHT22;8461;52.356;10.704;2022-08-19T02:15:57;19.80;99.90
13742;DHT22;8461;52.356;10.704;2022-08-19T02:18:23;19.90;99.90
13742;DHT22;8461;52.356;10.704;2022-08-19T02:20:48;19.80;99.90
13742;DHT22;8461;52.356;10.704;2022-08-19T02:23:16;19.90;99.90
13742;DHT22;8461;52.356;10.704;2022-08-19T02:25:44;19.80;99.90
13742;DHT22;8461;52.356;10.704;2022-08-19T02:28:10;19.80;99.90
13742;DHT22;8461;52.356;10.704;2022-08-19T02:30:37;19.70;99.90
13742;DHT22;8461;52.356;10.704;2022-08-19T02:33:04;19.70;99.90
13742;DHT22;8461;52.356;10.704;2022-08-19T02:35:30;19.70;99.90
13742;DHT22;8461;52.356;10.704;2022-08-19T02:37:56;19.70;99.90
13742;DHT22;8461;52.356;10.704;2022-08-19T02:40:40;19.60;99.90
13742;DHT22;8461;52.356;10.704;2022-08-19T02:43:07;19.50;99.90
13742;DHT22;8461;52.356;10.704;2022-08-19T02:45:38;19.50;99.90
13742;DHT22;8461;52.356;10.704;2022-08-19T02:48:04;19.50;99.90
13742;DHT22;8461;52.356;10.704;2022-08-19T02:50:30;19.50;99.90
13742;DHT22;8461;52.356;10.704;2022-08-19T02:52:56;19.50;99.90
13742;DHT22;8461;52.356;10.704;2022-08-19T02:55:22;19.50;99.90
13742;DHT22;8461;52.356;10.704;2022-08-19T02:57:48;19.40;99.90
13742;DHT22;8461;52.356;10.704;2022-08-19T03:00:14;19.40;99.90
13742;DHT22;8461;52.356;10.704;2022-08-19T03:02:40;19.40;99.90
13742;DHT22;8461;52.356;10.704;2022-08-19T03:05:08;19.40;99.90
13742;DHT22;8461;52.356;10.704;2022-08-19T03:07:35;19.20;99.90
13742;DHT22;8461;52.356;10.704;2022-08-19T03:10:00;19.20;99.90
13742;DHT22;8461;52.356;10.704;2022-08-19T03:12:26;19.10;99.90
13742;DHT22;8461;52.356;10.704;2022-08-19T03:14:51;19.10;99.90
13742;DHT22;8461;52.356;10.704;2022-08-19T03:17:18;19.10;99.90
13742;DHT22;8461;52.356;10.704;2022-08-19T03:19:43;19.00;99.90
13742;DHT22;8461;52.356;10.704;2022-08-19T03:22:09;19.00;99.90
13742;DHT22;8461;52.356;10.704;2022-08-19T03:24:35;19.00;99.90
13742;DHT22;8461;52.356;10.704;2022-08-19T03:27:00;18.90;99.90
13742;DHT22;8461;52.356;10.704;2022-08-19T03:29:28;18.90;99.90
13742;DHT22;8461;52.356;10.704;2022-08-19T03:31:53;18.80;99.90
13742;DHT22;8461;52.356;10.704;2022-08-19T03:34:22;18.80;99.90
13742;DHT22;8461;52.356;10.704;2022-08-19T03:36:51;18.80;99.90
13742;DHT22;8461;52.356;10.704;2022-08-19T03:39:18;18.80;99.90
13742;DHT22;8461;52.356;10.704;2022-08-19T03:41:45;18.80;99.90
13742;DHT22;8461;52.356;10.704;2022-08-19T03:44:17;18.70;99.90
13742;DHT22;8461;52.356;10.704;2022-08-19T03:46:43;18.70;99.90
13742;DHT22;8461;52.356;10.704;2022-08-19T03:49:09;18.60;99.90
13742;DHT22;8461;52.356;10.704;2022-08-19T03:51:37;18.70;99.90
13742;DHT22;8461;52.356;10.704;2022-08-19T03:54:06;18.70;99.90
13742;DHT22;8461;52.356;10.704;2022-08-19T03:56:34;18.70;99.90
13742;DHT22;8461;52.356;10.704;2022-08-19T03:59:00;18.70;99.90
13742;DHT22;8461;52.356;10.704;2022-08-19T04:01:27;18.80;99.90
13742;DHT22;8461;52.356;10.704;2022-08-19T04:03:57;18.80;99.90
13742;DHT22;8461;52.356;10.704;2022-08-19T04:06:28;18.80;99.90
13742;DHT22;8461;52.356;10.704;2022-08-19T04:08:56;18.80;99.90
13742;DHT22;8461;52.356;10.704;2022-08-19T04:11:29;18.70;99.90
13742;DHT22;8461;52.356;10.704;2022-08-19T04:13:55;18.70;99.90
13742;DHT22;8461;52.356;10.704;2022-08-19T04:16:24;18.70;99.90
13742;DHT22;8461;52.356;10.704;2022-08-19T04:18:50;18.70;99.90
13742;DHT22;8461;52.356;10.704;2022-08-19T04:21:21;18.70;99.90
13742;DHT22;8461;52.356;10.704;2022-08-19T04:23:48;18.70;99.90
13742;DHT22;8461;52.356;10.704;2022-08-19T04:26:16;18.70;99.90
13742;DHT22;8461;52.356;10.704;2022-08-19T04:28:42;18.70;99.90
13742;DHT22;8461;52.356;10.704;2022-08-19T04:31:14;18.60;99.90
13742;DHT22;8461;52.356;10.704;2022-08-19T04:33:39;18.60;99.90
13742;DHT22;8461;52.356;10.704;2022-08-19T04:36:05;18.60;99.90
13742;DHT22;8461;52.356;10.704;2022-08-19T04:38:31;18.60;99.90
13742;DHT22;8461;52.356;10.704;2022-08-19T04:40:56;18.60;99.90
13742;DHT22;8461;52.356;10.704;2022-08-19T04:43:40;18.50;99.90
13742;DHT22;8461;52.356;10.704;2022-08-19T04:46:11;18.50;99.90
13742;DHT22;8461;52.356;10.704;2022-08-19T04:48:38;18.40;99.90
13742;DHT22;8461;52.356;10.704;2022-08-19T04:51:08;18.40;99.90
13742;DHT22;8461;52.356;10.704;2022-08-19T04:53:36;18.40;99.90
13742;DHT22;8461;52.356;10.704;2022-08-19T04:56:08;18.40;99.90
13742;DHT22;8461;52.356;10.704;2022-08-19T04:58:36;18.30;99.90
13742;DHT22;8461;52.356;10.704;2022-08-19T05:01:03;18.30;99.90
13742;DHT22;8461;52.356;10.704;2022-08-19T05:03:28;18.20;99.90
13742;DHT22;8461;52.356;10.704;2022-08-19T05:06:06;18.20;99.90
13742;DHT22;8461;52.356;10.704;2022-08-19T05:08:34;18.30;99.90
13742;DHT22;8461;52.356;10.704;2022-08-19T05:11:01;18.30;99.90
13742;DHT22;8461;52.356;10.704;2022-08-19T05:13:26;18.30;99.90
13742;DHT22;8461;52.356;10.704;2022-08-19T05:15:57;18.30;99.90
13742;DHT22;8461;52.356;10.704;2022-08-19T05:18:23;18.30;99.90
13742;DHT22;8461;52.356;10.704;2022-08-19T05:21:13;18.20;99.90
13742;DHT22;8461;52.356;10.704;2022-08-19T05:23:57;18.20;99.90
13742;DHT22;8461;52.356;10.704;2022-08-19T05:26:24;18.20;99.90
13742;DHT22;8461;52.356;10.704;2022-08-19T05:28:52;18.10;99.90
13742;DHT22;8461;52.356;10.704;2022-08-19T05:31:17;18.10;99.90
13742;DHT22;8461;52.356;10.704;2022-08-19T05:33:43;18.10;99.90
13742;DHT22;8461;52.356;10.704;2022-08-19T05:36:09;18.10;99.90
13742;DHT22;8461;52.356;10.704;2022-08-19T05:38:34;18.10;99.90
13742;DHT22;8461;52.356;10.704;2022-08-19T05:41:06;18.10;99.90
13742;DHT22;8461;52.356;10.704;2022-08-19T05:43:31;18.10;99.90
13742;DHT22;8461;52.356;10.704;2022-08-19T05:45:57;18.10;99.90
13742;DHT22;8461;52.356;10.704;2022-08-19T05:48:23;18.20;99.90
13742;DHT22;8461;52.356;10.704;2022-08-19T05:50:49;18.20;99.90
13742;DHT22;8461;52.356;10.704;2022-08-19T05:53:16;18.20;99.90
13742;DHT22;8461;52.356;10.704;2022-08-19T05:55:42;18.20;99.90
13742;DHT22;8461;52.356;10.704;2022-08-19T05:58:07;18.10;99.90
13742;DHT22;8461;52.356;10.704;2022-08-19T06:00:35;18.20;99.90
13742;DHT22;8461;52.356;10.704;2022-08-19T06:03:01;18.20;99.90
13742;DHT22;8461;52.356;10.704;2022-08-19T06:05:29;18.30;99.90
13742;DHT22;8461;52.356;10.704;2022-08-19T06:07:55;18.30;99.90
13742;DHT22;8461;52.356;10.704;2022-08-19T06:10:21;18.40;99.90
13742;DHT22;8461;52.356;10.704;2022-08-19T06:12:47;18.40;99.90
13742;DHT22;8461;52.356;10.704;2022-08-19T06:15:14;18.40;99.90
13742;DHT22;8461;52.356;10.704;2022-08-19T06:17:40;18.40;99.90
13742;DHT22;8461;52.356;10.704;2022-08-19T06:20:09;18.40;99.90
13742;DHT22;8461;52.356;10.704;2022-08-19T06:22:42;18.30;99.90
13742;DHT22;8461;52.356;10.704;2022-08-19T06:25:08;18.40;99.90
13742;DHT22;8461;52.356;10.704;2022-08-19T06:27:37;18.30;99.90
13742;DHT22;8461;52.356;10.704;2022-08-19T06:30:04;18.30;99.90
13742;DHT22;8461;52.356;10.704;2022-08-19T06:32:30;18.30;99.90
13742;DHT22;8461;52.356;10.704;2022-08-19T06:34:55;18.30;99.90
13742;DHT22;8461;52.356;10.704;2022-08-19T06:37:21;18.30;99.90
13742;DHT22;8461;52.356;10.704;2022-08-19T06:39:48;18.30;99.90
13742;DHT22;8461;52.356;10.704;2022-08-19T06:42:13;18.30;99.90
13742;DHT22;8461;52.356;10.704;2022-08-19T06:44:43;18.30;99.90
13742;DHT22;8461;52.356;10.704;2022-08-19T06:47:12;18.30;99.90
13742;DHT22;8461;52.356;10.704;2022-08-19T06:49:38;18.40;99.90
13742;DHT22;8461;52.356;10.704;2022-08-19T06:52:04;18.40;99.90
13742;DHT22;8461;52.356;10.704;2022-08-19T06:54:30;18.30;99.90
13742;DHT22;8461;52.356;10.704;2022-08-19T06:56:57;18.40;99.90
13742;DHT22;8461;52.356;10.704;2022-08-19T06:59:24;18.20;99.90
13742;DHT22;8461;52.356;10.704;2022-08-19T07:01:54;18.20;99.90
13742;DHT22;8461;52.356;10.704;2022-08-19T07:04:23;18.20;99.90
13742;DHT22;8461;52.356;10.704;2022-08-19T07:06:50;18.30;99.90
13742;DHT22;8461;52.356;10.704;2022-08-19T07:09:17;18.30;99.90
13742;DHT22;8461;52.356;10.704;2022-08-19T07:11:50;18.40;99.90
13742;DHT22;8461;52.356;10.704;2022-08-19T07:14:21;18.40;99.90
13742;DHT22;8461;52.356;10.704;2022-08-19T07:16:49;18.40;99.90
13742;DHT22;8461;52.356;10.704;2022-08-19T07:19:16;18.40;99.90
13742;DHT22;8461;52.356;10.704;2022-08-19T07:21:42;18.40;99.90
13742;DHT22;8461;52.356;10.704;2022-08-19T07:24:08;18.40;99.90
13742;DHT22;8461;52.356;10.704;2022-08-19T07:26:39;18.40;99.90
13742;DHT22;8461;52.356;10.704;2022-08-19T07:29:05;18.40;99.90
13742;DHT22;8461;52.356;10.704;2022-08-19T07:31:31;18.40;99.90
13742;DHT22;8461;52.356;10.704;2022-08-19T07:34:03;18.40;99.90
13742;DHT22;8461;52.356;10.704;2022-08-19T07:36:33;18.40;99.90
13742;DHT22;8461;52.356;10.704;2022-08-19T07:39:01;18.40;99.90
13742;DHT22;8461;52.356;10.704;2022-08-19T07:41:28;18.30;99.90
13742;DHT22;8461;52.356;10.704;2022-08-19T07:43:59;18.30;99.90
13742;DHT22;8461;52.356;10.704;2022-08-19T07:46:33;18.30;99.90
13742;DHT22;8461;52.356;10.704;2022-08-19T07:48:59;18.30;99.90
13742;DHT22;8461;52.356;10.704;2022-08-19T07:51:26;18.40;99.90
13742;DHT22;8461;52.356;10.704;2022-08-19T07:53:52;18.30;99.90
13742;DHT22;8461;52.356;10.704;2022-08-19T07:56:19;18.40;99.90
13742;DHT22;8461;52.356;10.704;2022-08-19T07:58:47;18.40;99.90
13742;DHT22;8461;52.356;10.704;2022-08-19T08:01:16;18.50;99.90
13742;DHT22;8461;52.356;10.704;2022-08-19T08:03:42;18.40;99.90
13742;DHT22;8461;52.356;10.704;2022-08-19T08:06:26;18.40;99.90
13742;DHT22;8461;52.356;10.704;2022-08-19T08:09:12;18.50;99.90
13742;DHT22;8461;52.356;10.704;2022-08-19T08:12:02;18.50;99.90
13742;DHT22;8461;52.356;10.704;2022-08-19T08:14:33;18.50;99.90
13742;DHT22;8461;52.356;10.704;2022-08-19T08:17:00;18.50;99.90
13742;DHT22;8461;52.356;10.704;2022-08-19T08:19:27;18.40;99.90
13742;DHT22;8461;52.356;10.704;2022-08-19T08:21:57;18.50;99.90
13742;DHT22;8461;52.356;10.704;2022-08-19T08:24:24;18.70;99.90
13742;DHT22;8461;52.356;10.704;2022-08-19T08:26:49;18.70;99.90
13742;DHT22;8461;52.356;10.704;2022-08-19T08:29:15;18.70;99.90
13742;DHT22;8461;52.356;10.704;2022-08-19T08:31:43;18.70;99.90
13742;DHT22;8461;52.356;10.704;2022-08-19T08:34:09;18.80;99.90
13742;DHT22;8461;52.356;10.704;2022-08-19T08:36:44;18.80;99.90
13742;DHT22;8461;52.356;10.704;2022-08-19T08:39:19;18.90;99.90
13742;DHT22;8461;52.356;10.704;2022-08-19T08:47:10;19.10;99.90
13742;DHT22;8461;52.356;10.704;2022-08-19T08:55:14;19.30;99.90
13742;DHT22;8461;52.356;10.704;2022-08-19T09:00:10;19.50;99.90
13742;DHT22;8461;52.356;10.704;2022-08-19T09:02:38;19.40;99.90
13742;DHT22;8461;52.356;10.704;2022-08-19T09:05:04;19.50;99.90
13742;DHT22;8461;52.356;10.704;2022-08-19T09:08:07;19.40;99.90
13742;DHT22;8461;52.356;10.704;2022-08-19T09:10:37;19.40;99.90
13742;DHT22;8461;52.356;10.704;2022-08-19T09:13:25;19.60;99.90
13742;DHT22;8461;52.356;10.704;2022-08-19T09:15:58;19.70;99.90
13742;DHT22;8461;52.356;10.704;2022-08-19T09:18:26;19.60;99.90
13742;DHT22;8461;52.356;10.704;2022-08-19T09:21:03;19.70;99.90
13742;DHT22;8461;52.356;10.704;2022-08-19T09:23:28;19.80;99.90
13742;DHT22;8461;52.356;10.704;2022-08-19T09:25:54;19.80;99.90
13742;DHT22;8461;52.356;10.704;2022-08-19T09:28:20;19.80;99.90
13742;DHT22;8461;52.356;10.704;2022-08-19T09:30:45;19.90;99.90
13742;DHT22;8461;52.356;10.704;2022-08-19T09:33:11;19.90;99.90
13742;DHT22;8461;52.356;10.704;2022-08-19T09:35:37;19.90;99.90
13742;DHT22;8461;52.356;10.704;2022-08-19T09:38:02;19.80;99.90
13742;DHT22;8461;52.356;10.704;2022-08-19T09:40:29;19.80;99.90
13742;DHT22;8461;52.356;10.704;2022-08-19T09:42:55;19.90;99.90
13742;DHT22;8461;52.356;10.704;2022-08-19T09:45:22;19.80;99.90
13742;DHT22;8461;52.356;10.704;2022-08-19T09:47:49;19.80;99.90
13742;DHT22;8461;52.356;10.704;2022-08-19T09:50:16;20.00;99.90
13742;DHT22;8461;52.356;10.704;2022-08-19T09:52:42;19.90;99.90
13742;DHT22;8461;52.356;10.704;2022-08-19T09:55:10;19.90;99.90
13742;DHT22;8461;52.356;10.704;2022-08-19T09:57:35;19.90;99.90
13742;DHT22;8461;52.356;10.704;2022-08-19T10:00:05;20.00;99.90
13742;DHT22;8461;52.356;10.704;2022-08-19T10:02:32;19.90;99.90
13742;DHT22;8461;52.356;10.704;2022-08-19T10:04:57;20.00;99.90
13742;DHT22;8461;52.356;10.704;2022-08-19T10:07:46;20.00;99.90
13742;DHT22;8461;52.356;10.704;2022-08-19T10:10:12;20.00;99.90
13742;DHT22;8461;52.356;10.704;2022-08-19T10:12:37;20.00;99.90
13742;DHT22;8461;52.356;10.704;2022-08-19T10:15:05;20.00;99.90
13742;DHT22;8461;52.356;10.704;2022-08-19T10:17:31;20.10;99.90
13742;DHT22;8461;52.356;10.704;2022-08-19T10:19:59;20.20;99.90
13742;DHT22;8461;52.356;10.704;2022-08-19T10:22:25;20.30;99.90
13742;DHT22;8461;52.356;10.704;2022-08-19T10:24:51;20.30;99.90
13742;DHT22;8461;52.356;10.704;2022-08-19T10:27:17;20.50;99.90
13742;DHT22;8461;52.356;10.704;2022-08-19T10:29:43;20.60;99.90
13742;DHT22;8461;52.356;10.704;2022-08-19T10:32:09;20.60;99.90
13742;DHT22;8461;52.356;10.704;2022-08-19T10:34:37;20.80;99.90
13742;DHT22;8461;52.356;10.704;2022-08-19T10:37:03;20.80;99.90
13742;DHT22;8461;52.356;10.704;2022-08-19T10:39:35;20.80;99.90
13742;DHT22;8461;52.356;10.704;2022-08-19T10:42:06;20.70;99.90
13742;DHT22;8461;52.356;10.704;2022-08-19T10:44:32;20.60;99.90
13742;DHT22;8461;52.356;10.704;2022-08-19T10:46:58;20.60;99.90
13742;DHT22;8461;52.356;10.704;2022-08-19T10:49:24;20.70;99.90
13742;DHT22;8461;52.356;10.704;2022-08-19T10:51:50;20.70;99.90
13742;DHT22;8461;52.356;10.704;2022-08-19T10:54:34;20.70;99.90
13742;DHT22;8461;52.356;10.704;2022-08-19T10:57:18;20.60;99.90
13742;DHT22;8461;52.356;10.704;2022-08-19T10:59:43;20.60;99.90
13742;DHT22;8461;52.356;10.704;2022-08-19T11:02:10;20.60;99.90
13742;DHT22;8461;52.356;10.704;2022-08-19T11:04:38;20.60;99.90
13742;DHT22;8461;52.356;10.704;2022-08-19T11:07:05;20.60;99.90
13742;DHT22;8461;52.356;10.704;2022-08-19T11:09:31;20.60;99.90
13742;DHT22;8461;52.356;10.704;2022-08-19T11:11:57;20.70;99.90
13742;DHT22;8461;52.356;10.704;2022-08-19T11:14:23;20.70;99.90
13742;DHT22;8461;52.356;10.704;2022-08-19T11:16:51;20.80;99.90
13742;DHT22;8461;52.356;10.704;2022-08-19T11:19:17;20.80;99.90
13742;DHT22;8461;52.356;10.704;2022-08-19T11:21:46;20.90;99.90
13742;DHT22;8461;52.356;10.704;2022-08-19T11:24:19;21.00;99.90
13742;DHT22;8461;52.356;10.704;2022-08-19T11:26:46;21.10;99.90
13742;DHT22;8461;52.356;10.704;2022-08-19T11:29:15;21.10;99.90
13742;DHT22;8461;52.356;10.704;2022-08-19T11:31:43;21.00;99.90
13742;DHT22;8461;52.356;10.704;2022-08-19T11:34:13;21.20;99.90
13742;DHT22;8461;52.356;10.704;2022-08-19T11:36:42;21.40;99.90
13742;DHT22;8461;52.356;10.704;2022-08-19T11:39:09;21.40;99.90
13742;DHT22;8461;52.356;10.704;2022-08-19T11:41:35;21.40;99.90
13742;DHT22;8461;52.356;10.704;2022-08-19T11:44:02;21.40;99.90
13742;DHT22;8461;52.356;10.704;2022-08-19T11:46:29;21.50;99.90
13742;DHT22;8461;52.356;10.704;2022-08-19T11:48:57;21.70;99.90
13742;DHT22;8461;52.356;10.704;2022-08-19T11:51:25;21.90;99.90
13742;DHT22;8461;52.356;10.704;2022-08-19T11:53:52;22.00;99.90
13742;DHT22;8461;52.356;10.704;2022-08-19T11:56:18;21.90;99.90
13742;DHT22;8461;52.356;10.704;2022-08-19T11:58:45;21.90;99.90
13742;DHT22;8461;52.356;10.704;2022-08-19T12:01:13;21.90;99.90
13742;DHT22;8461;52.356;10.704;2022-08-19T12:03:41;21.90;99.90
13742;DHT22;8461;52.356;10.704;2022-08-19T12:06:14;21.90;99.90
13742;DHT22;8461;52.356;10.704;2022-08-19T12:08:41;21.90;99.90
13742;DHT22;8461;52.356;10.704;2022-08-19T12:11:08;21.80;99.90
13742;DHT22;8461;52.356;10.704;2022-08-19T12:13:35;22.00;99.90
13742;DHT22;8461;52.356;10.704;2022-08-19T12:16:07;22.10;99.90
13742;DHT22;8461;52.356;10.704;2022-08-19T12:18:34;22.20;99.90
13742;DHT22;8461;52.356;10.704;2022-08-19T12:21:00;22.20;99.90
13742;DHT22;8461;52.356;10.704;2022-08-19T12:23:26;22.20;99.90
13742;DHT22;8461;52.356;10.704;2022-08-19T12:25:52;22.20;99.90
13742;DHT22;8461;52.356;10.704;2022-08-19T12:28:19;21.90;99.90
13742;DHT22;8461;52.356;10.704;2022-08-19T12:30:46;21.70;99.90
13742;DHT22;8461;52.356;10.704;2022-08-19T12:33:11;21.80;99.90
13742;DHT22;8461;52.356;10.704;2022-08-19T12:35:42;21.90;99.90
13742;DHT22;8461;52.356;10.704;2022-08-19T12:38:12;21.90;99.90
13742;DHT22;8461;52.356;10.704;2022-08-19T12:40:38;22.00;99.90
13742;DHT22;8461;52.356;10.704;2022-08-19T12:43:08;22.10;99.90
13742;DHT22;8461;52.356;10.704;2022-08-19T12:45:35;22.30;99.90
13742;DHT22;8461;52.356;10.704;2022-08-19T12:48:00;22.50;99.90
13742;DHT22;8461;52.356;10.704;2022-08-19T12:50:26;22.70;99.90
13742;DHT22;8461;52.356;10.704;2022-08-19T12:52:51;23.00;99.90
13742;DHT22;8461;52.356;10.704;2022-08-19T12:55:17;23.30;99.90
13742;DHT22;8461;52.356;10.704;2022-08-19T12:57:44;23.50;99.90
13742;DHT22;8461;52.356;10.704;2022-08-19T13:00:14;23.40;99.90
13742;DHT22;8461;52.356;10.704;2022-08-19T13:02:41;23.40;99.90
13742;DHT22;8461;52.356;10.704;2022-08-19T13:05:11;23.60;99.90
13742;DHT22;8461;52.356;10.704;2022-08-19T13:07:38;23.80;99.90
13742;DHT22;8461;52.356;10.704;2022-08-19T13:10:06;24.10;99.90
13742;DHT22;8461;52.356;10.704;2022-08-19T13:12:32;24.10;99.90
13742;DHT22;8461;52.356;10.704;2022-08-19T13:14:57;24.10;99.90
13742;DHT22;8461;52.356;10.704;2022-08-19T13:17:23;24.10;99.90
13742;DHT22;8461;52.356;10.704;2022-08-19T13:19:49;24.00;99.90
13742;DHT22;8461;52.356;10.704;2022-08-19T13:22:15;23.80;99.90
13742;DHT22;8461;52.356;10.704;2022-08-19T13:24:41;23.80;99.90
13742;DHT22;8461;52.356;10.704;2022-08-19T13:27:07;23.70;99.90
13742;DHT22;8461;52.356;10.704;2022-08-19T13:29:32;23.60;99.90
13742;DHT22;8461;52.356;10.704;2022-08-19T13:32:17;23.50;99.90
13742;DHT22;8461;52.356;10.704;2022-08-19T13:35:02;23.40;99.90
13742;DHT22;8461;52.356;10.704;2022-08-19T13:37:27;23.30;99.90
13742;DHT22;8461;52.356;10.704;2022-08-19T13:40:14;23.30;99.90
13742;DHT22;8461;52.356;10.704;2022-08-19T13:42:44;23.20;99.90
13742;DHT22;8461;52.356;10.704;2022-08-19T13:45:12;23.10;99.90
13742;DHT22;8461;52.356;10.704;2022-08-19T13:47:38;23.00;99.90
13742;DHT22;8461;52.356;10.704;2022-08-19T13:50:12;23.10;99.90
13742;DHT22;8461;52.356;10.704;2022-08-19T13:52:39;23.20;99.90
13742;DHT22;8461;52.356;10.704;2022-08-19T13:55:05;23.20;99.90
13742;DHT22;8461;52.356;10.704;2022-08-19T13:57:30;23.20;99.90
13742;DHT22;8461;52.356;10.704;2022-08-19T13:59:58;23.30;99.90
13742;DHT22;8461;52.356;10.704;2022-08-19T14:02:24;23.30;99.90
13742;DHT22;8461;52.356;10.704;2022-08-19T14:04:49;23.30;99.90
13742;DHT22;8461;52.356;10.704;2022-08-19T14:07:15;23.50;99.90
13742;DHT22;8461;52.356;10.704;2022-08-19T14:09:40;23.50;99.90
13742;DHT22;8461;52.356;10.704;2022-08-19T14:12:06;23.60;99.90
13742;DHT22;8461;52.356;10.704;2022-08-19T14:14:32;23.70;99.90
13742;DHT22;8461;52.356;10.704;2022-08-19T14:17:01;23.80;99.90
13742;DHT22;8461;52.356;10.704;2022-08-19T14:19:26;23.90;99.90
13742;DHT22;8461;52.356;10.704;2022-08-19T14:21:52;23.90;99.90
13742;DHT22;8461;52.356;10.704;2022-08-19T14:24:17;24.00;99.90
13742;DHT22;8461;52.356;10.704;2022-08-19T14:26:43;24.00;99.90
13742;DHT22;8461;52.356;10.704;2022-08-19T14:29:08;23.90;99.90
13742;DHT22;8461;52.356;10.704;2022-08-19T14:31:34;23.80;99.90
13742;DHT22;8461;52.356;10.704;2022-08-19T14:33:59;23.80;99.90
13742;DHT22;8461;52.356;10.704;2022-08-19T14:36:25;23.80;99.90
13742;DHT22;8461;52.356;10.704;2022-08-19T14:38:51;23.70;99.90
13742;DHT22;8461;52.356;10.704;2022-08-19T14:41:21;23.60;99.90
13742;DHT22;8461;52.356;10.704;2022-08-19T14:43:49;23.60;99.90
13742;DHT22;8461;52.356;10.704;2022-08-19T14:46:17;23.50;99.90
13742;DHT22;8461;52.356;10.704;2022-08-19T14:48:43;23.50;99.90
13742;DHT22;8461;52.356;10.704;2022-08-19T14:51:09;23.60;99.90
13742;DHT22;8461;52.356;10.704;2022-08-19T14:53:34;23.60;99.90
13742;DHT22;8461;52.356;10.704;2022-08-19T14:56:01;23.60;99.90
13742;DHT22;8461;52.356;10.704;2022-08-19T14:58:31;23.70;99.90
13742;DHT22;8461;52.356;10.704;2022-08-19T15:00:58;23.70;99.90
13742;DHT22;8461;52.356;10.704;2022-08-19T15:03:24;23.90;99.90
13742;DHT22;8461;52.356;10.704;2022-08-19T15:05:51;24.10;99.90
13742;DHT22;8461;52.356;10.704;2022-08-19T15:08:16;24.10;99.90
13742;DHT22;8461;52.356;10.704;2022-08-19T15:10:42;24.20;99.90
13742;DHT22;8461;52.356;10.704;2022-08-19T15:13:07;24.20;99.90
13742;DHT22;8461;52.356;10.704;2022-08-19T15:15:34;24.30;99.90
13742;DHT22;8461;52.356;10.704;2022-08-19T15:18:00;24.30;99.90
13742;DHT22;8461;52.356;10.704;2022-08-19T15:20:28;24.20;99.90
13742;DHT22;8461;52.356;10.704;2022-08-19T15:22:54;24.30;99.90
13742;DHT22;8461;52.356;10.704;2022-08-19T15:25:20;24.40;99.90
13742;DHT22;8461;52.356;10.704;2022-08-19T15:27:47;24.30;99.90
13742;DHT22;8461;52.356;10.704;2022-08-19T15:30:19;24.50;99.90
13742;DHT22;8461;52.356;10.704;2022-08-19T15:32:45;24.60;99.90
13742;DHT22;8461;52.356;10.704;2022-08-19T15:35:11;24.60;99.90
13742;DHT22;8461;52.356;10.704;2022-08-19T15:37:37;24.70;99.90
13742;DHT22;8461;52.356;10.704;2022-08-19T15:40:04;24.80;99.90
13742;DHT22;8461;52.356;10.704;2022-08-19T15:42:30;24.70;99.90
13742;DHT22;8461;52.356;10.704;2022-08-19T15:44:56;24.60;99.90
13742;DHT22;8461;52.356;10.704;2022-08-19T15:47:22;24.50;99.90
13742;DHT22;8461;52.356;10.704;2022-08-19T15:49:47;24.60;99.90